Time;durP1;ratioP1;P1;durP2;ratioP2;P2;SDS_P1;SDS_P2;PMS_P1;PMS_P2;Temp;Humidity;BMP_temperature;BMP_pressure;BME280_temperature;BME280_humidity;BME280_pressure;Samples;Min_cycle;Max_cycle;Signal;HPM_P1;HPM_P2
2023/05/04 00:00:29;;;;;;;12.03;4.73;;;;;;;12.47;54.50;101218.02;124906;1086;104363;-72
2023/05/04 00:03:14;;;;;;;7.40;3.73;;;;;;;12.50;54.54;101212.87;125067;1085;104309;-72
2023/05/04 00:05:42;;;;;;;6.00;3.67;;;;;;;12.51;54.75;101204.16;124943;1086;104203;-72
2023/05/04 00:08:11;;;;;;;8.83;3.67;;;;;;;12.50;54.68;101204.98;125127;1086;104232;-72
2023/05/04 00:10:40;;;;;;;6.27;3.50;;;;;;;12.50;54.82;101204.09;125023;1086;104260;-72
2023/05/04 00:13:08;;;;;;;6.80;3.80;;;;;;;12.52;54.59;101199.77;125171;1086;104319;-71
2023/05/04 00:15:37;;;;;;;6.70;3.55;;;;;;;12.51;54.77;101193.63;125239;1086;104267;-72
2023/05/04 00:18:06;;;;;;;5.83;3.70;;;;;;;12.54;54.67;101195.45;125220;1086;104405;-71
2023/05/04 00:20:34;;;;;;;6.47;3.67;;;;;;;12.54;54.51;101191.11;125206;1086;104210;-72
2023/05/04 00:23:03;;;;;;;7.57;3.50;;;;;;;12.53;54.35;101188.42;125137;1086;104257;-72
2023/05/04 00:25:32;;;;;;;6.47;3.83;;;;;;;12.50;54.77;101189.19;125200;1085;104223;-74
2023/05/04 00:28:00;;;;;;;7.70;3.40;;;;;;;12.46;54.66;101187.26;125167;1085;104309;-72
2023/05/04 00:30:29;;;;;;;8.60;4.67;;;;;;;12.43;54.72;101184.50;125113;1086;104373;-72
2023/05/04 00:32:57;;;;;;;7.03;4.07;;;;;;;12.41;54.74;101183.56;124868;1086;104247;-72
2023/05/04 00:35:26;;;;;;;8.30;4.07;;;;;;;12.41;54.76;101180.93;125064;1086;104284;-73
2023/05/04 00:37:54;;;;;;;7.37;3.97;;;;;;;12.37;54.94;101181.63;124947;1085;104343;-72
2023/05/04 00:40:23;;;;;;;7.70;4.20;;;;;;;12.30;54.99;101187.52;124973;1086;104238;-73
2023/05/04 00:42:52;;;;;;;9.90;4.13;;;;;;;12.23;54.97;101184.64;124906;1086;104466;-73
2023/05/04 00:45:21;;;;;;;10.80;4.67;;;;;;;12.21;55.07;101186.28;124952;1086;104228;-72
2023/05/04 00:47:50;;;;;;;8.80;4.57;;;;;;;12.22;55.20;101189.84;124975;1086;104350;-73
2023/05/04 00:50:19;;;;;;;8.57;4.43;;;;;;;12.24;55.15;101188.16;124987;1086;104251;-73
2023/05/04 00:52:50;;;;;;;10.97;4.53;;;;;;;12.23;55.88;101182.00;124941;1086;104284;-72
2023/05/04 00:55:19;;;;;;;8.90;4.40;;;;;;;12.24;55.40;101177.62;125000;1086;104388;-73
2023/05/04 00:57:50;;;;;;;9.43;4.20;;;;;;;12.22;55.56;101180.20;124996;1086;104204;-72
2023/05/04 01:00:18;;;;;;;12.73;4.90;;;;;;;12.22;55.51;101184.58;125014;1085;104363;-72
2023/05/04 01:02:48;;;;;;;11.27;4.53;;;;;;;12.20;55.50;101186.23;124917;1086;104258;-72
2023/05/04 01:05:17;;;;;;;9.60;4.57;;;;;;;12.19;55.59;101195.86;124919;1086;104377;-72
2023/05/04 01:07:56;;;;;;;10.60;4.50;;;;;;;12.20;55.87;101195.04;124952;1086;104653;-73
2023/05/04 01:10:31;;;;;;;9.00;4.53;;;;;;;12.20;55.74;101202.02;125019;1086;104238;-73
2023/05/04 01:13:05;;;;;;;11.97;4.80;;;;;;;12.16;55.91;101198.37;125045;1086;105668;-73
2023/05/04 01:15:34;;;;;;;9.37;4.67;;;;;;;12.15;56.04;101193.94;125220;1086;104255;-72
2023/05/04 01:18:03;;;;;;;6.80;4.13;;;;;;;12.15;55.83;101193.05;124981;1086;104343;-73
2023/05/04 01:20:32;;;;;;;9.93;4.63;;;;;;;12.14;56.04;101193.88;124875;1086;104395;-73
2023/05/04 01:23:01;;;;;;;15.80;5.10;;;;;;;12.14;55.96;101196.50;124891;1086;104356;-74
2023/05/04 01:25:35;;;;;;;10.93;4.30;;;;;;;12.13;56.13;101194.73;124938;1086;104206;-72
2023/05/04 01:28:10;;;;;;;8.43;4.57;;;;;;;12.11;56.09;101186.77;124950;1086;104633;-73
2023/05/04 01:30:43;;;;;;;7.27;4.33;;;;;;;12.12;56.09;101190.29;124922;1086;104274;-72
2023/05/04 01:33:11;;;;;;;10.53;4.47;;;;;;;12.13;56.42;101192.09;124885;1086;104373;-72
2023/05/04 01:35:40;;;;;;;8.43;4.60;;;;;;;12.11;56.37;101175.36;124928;1085;104241;-72
2023/05/04 01:38:09;;;;;;;8.90;4.30;;;;;;;12.10;56.37;101184.08;124994;1085;104458;-73
2023/05/04 01:40:37;;;;;;;9.13;4.43;;;;;;;12.08;56.36;101176.13;125016;1086;104232;-72
2023/05/04 01:43:06;;;;;;;11.40;4.57;;;;;;;12.05;56.45;101174.26;125127;1086;104373;-73
2023/05/04 01:45:34;;;;;;;9.90;4.57;;;;;;;12.05;56.64;101170.74;125243;1086;104331;-72
2023/05/04 01:48:03;;;;;;;11.80;4.60;;;;;;;12.03;56.58;101161.91;125185;1085;104350;-72
2023/05/04 01:50:33;;;;;;;9.80;4.87;;;;;;;12.00;56.66;101152.14;124950;1086;104676;-73
2023/05/04 01:53:02;;;;;;;9.67;4.73;;;;;;;11.96;56.66;101155.47;125244;1086;104231;-73
2023/05/04 01:55:30;;;;;;;8.47;4.40;;;;;;;11.95;57.06;101155.41;125238;1086;104339;-73
2023/05/04 01:57:59;;;;;;;12.23;4.87;;;;;;;11.92;57.10;101145.69;125260;1086;104231;-73
2023/05/04 02:00:28;;;;;;;12.53;4.67;;;;;;;11.90;57.16;101154.30;125163;1086;104216;-73
2023/05/04 02:02:56;;;;;;;10.20;5.13;;;;;;;11.87;57.08;101155.98;124971;1086;104341;-73
2023/05/04 02:05:25;;;;;;;9.60;4.40;;;;;;;11.81;56.96;101153.10;124980;1086;104231;-72
2023/05/04 02:07:53;;;;;;;10.37;4.80;;;;;;;11.75;57.55;101158.11;125129;1086;104414;-73
2023/05/04 02:10:22;;;;;;;8.33;4.60;;;;;;;11.72;57.54;101154.43;124871;1086;104530;-73
2023/05/04 02:12:51;;;;;;;8.10;4.80;;;;;;;11.71;57.12;101160.55;124914;1086;104370;-73
2023/05/04 02:15:20;;;;;;;10.13;4.87;;;;;;;11.69;57.38;101161.37;124634;1086;104723;-75
2023/05/04 02:17:48;;;;;;;10.60;4.90;;;;;;;11.68;57.70;101150.78;125076;1086;104238;-73
2023/05/04 02:20:17;;;;;;;13.87;5.30;;;;;;;11.63;57.42;101149.70;124761;1086;104387;-73
2023/05/04 02:22:47;;;;;;;14.10;5.23;;;;;;;11.60;57.75;101152.20;124939;1086;104379;-74
2023/05/04 02:25:16;;;;;;;13.10;5.75;;;;;;;11.54;58.36;101154.58;124937;1086;104768;-74
2023/05/04 02:27:44;;;;;;;11.97;5.40;;;;;;;11.51;57.99;101155.33;124977;1086;104229;-72
2023/05/04 02:30:15;;;;;;;9.53;5.43;;;;;;;11.50;57.91;101164.96;124984;1086;104303;-72
2023/05/04 02:32:43;;;;;;;15.00;5.90;;;;;;;11.49;58.30;101151.75;124975;1086;104325;-74
2023/05/04 02:35:12;;;;;;;12.10;5.83;;;;;;;11.53;58.05;101153.69;124907;1086;104363;-73
2023/05/04 02:37:40;;;;;;;13.87;5.70;;;;;;;11.55;58.18;101154.64;125169;1086;104284;-72
2023/05/04 02:40:12;;;;;;;15.43;5.80;;;;;;;11.59;58.06;101153.92;124877;1086;104312;-71
2023/05/04 02:42:40;;;;;;;15.10;6.20;;;;;;;11.61;58.07;101157.53;125342;1086;104361;-72
2023/05/04 02:45:10;;;;;;;15.50;5.80;;;;;;;11.63;58.12;101175.99;125113;1086;104317;-72
2023/05/04 02:47:39;;;;;;;14.17;6.47;;;;;;;11.64;58.15;101162.00;125185;1086;104332;-72
2023/05/04 02:50:09;;;;;;;17.33;6.67;;;;;;;11.67;57.75;101170.93;125056;1086;104328;-73
2023/05/04 02:52:37;;;;;;;18.80;6.83;;;;;;;11.65;57.98;101169.06;124996;1086;104351;-72
2023/05/04 02:55:08;;;;;;;17.40;7.07;;;;;;;11.67;58.09;101172.64;124905;1086;104258;-73
2023/05/04 02:57:36;;;;;;;15.55;6.95;;;;;;;11.66;57.83;101174.38;125123;1086;104344;-72
2023/05/04 03:00:08;;;;;;;16.27;6.57;;;;;;;11.64;58.00;101175.14;125067;1086;104510;-73
2023/05/04 03:02:36;;;;;;;15.03;6.50;;;;;;;11.62;58.09;101175.08;125088;1086;104360;-72
2023/05/04 03:05:06;;;;;;;13.50;6.50;;;;;;;11.60;58.54;101173.23;125127;1086;104333;-73
2023/05/04 03:07:35;;;;;;;14.43;6.07;;;;;;;11.61;58.32;101169.75;125025;1086;104248;-73
2023/05/04 03:10:03;;;;;;;13.13;5.57;;;;;;;11.60;58.36;101170.61;125177;1086;104406;-72
2023/05/04 03:12:32;;;;;;;13.57;5.23;;;;;;;11.61;58.19;101181.19;125059;1086;104399;-73
2023/05/04 03:15:01;;;;;;;10.50;4.70;;;;;;;11.63;58.21;101181.25;125082;1086;104347;-72
2023/05/04 03:17:30;;;;;;;13.27;5.60;;;;;;;11.62;58.14;101180.33;125115;1086;104366;-72
2023/05/04 03:19:58;;;;;;;10.70;5.33;;;;;;;11.61;58.10;101186.44;124813;1086;104232;-72
2023/05/04 03:22:28;;;;;;;10.63;4.80;;;;;;;11.62;58.17;101192.59;125089;1085;104337;-72
2023/05/04 03:24:56;;;;;;;13.90;4.97;;;;;;;11.61;58.14;101183.81;124742;1086;104296;-72
2023/05/04 03:27:25;;;;;;;10.37;5.00;;;;;;;11.63;58.12;101186.51;125064;1086;104363;-73
2023/05/04 03:29:53;;;;;;;10.70;4.57;;;;;;;11.65;57.82;101193.61;125160;1086;104364;-74
2023/05/04 03:32:23;;;;;;;11.53;4.77;;;;;;;11.67;58.17;101199.84;124849;1086;104337;-73
2023/05/04 03:34:52;;;;;;;9.50;4.50;;;;;;;11.68;58.15;101198.11;125013;1086;104418;-72
2023/05/04 03:37:21;;;;;;;8.90;4.30;;;;;;;11.69;58.40;101207.80;125201;1086;104430;-72
2023/05/04 03:39:49;;;;;;;10.90;4.97;;;;;;;11.69;58.45;101200.80;125087;1085;104251;-72
2023/05/04 03:42:18;;;;;;;12.20;4.70;;;;;;;11.69;58.20;101194.66;125068;1086;104271;-72
2023/05/04 03:44:48;;;;;;;12.37;5.13;;;;;;;11.70;57.98;101199.06;125344;1086;104155;-72
2023/05/04 03:47:17;;;;;;;8.97;4.67;;;;;;;11.71;58.38;101194.72;125369;1086;104383;-71
2023/05/04 03:49:46;;;;;;;14.77;4.80;;;;;;;11.71;58.18;101198.23;125297;1085;104318;-75
2023/05/04 03:52:15;;;;;;;13.87;4.80;;;;;;;11.73;58.11;101187.78;125285;1086;104280;-73
2023/05/04 03:54:43;;;;;;;8.97;4.30;;;;;;;11.74;58.03;101187.85;125108;1086;104232;-74
2023/05/04 03:57:13;;;;;;;11.45;4.40;;;;;;;11.78;58.04;101186.23;125161;1086;104231;-74
2023/05/04 03:59:41;;;;;;;10.00;4.00;;;;;;;11.78;58.03;101186.23;124894;1086;104316;-74
2023/05/04 04:02:10;;;;;;;11.63;5.03;;;;;;;11.78;58.08;101191.50;125028;1085;104683;-75
2023/05/04 04:04:38;;;;;;;8.40;4.33;;;;;;;11.78;58.07;101202.94;125134;1086;104242;-74
2023/05/04 04:07:07;;;;;;;10.80;4.57;;;;;;;11.82;57.94;101203.95;125506;1086;104289;-74
2023/05/04 04:09:35;;;;;;;14.63;4.60;;;;;;;11.86;57.98;101206.77;125543;1086;104231;-75
2023/05/04 04:12:04;;;;;;;10.47;4.50;;;;;;;11.92;57.77;101210.48;125154;1086;104241;-76
2023/05/04 04:14:33;;;;;;;10.13;4.50;;;;;;;11.97;58.02;101209.88;125402;1086;104523;-74
2023/05/04 04:17:01;;;;;;;9.57;4.47;;;;;;;12.03;57.98;101211.88;125421;1086;104229;-76
2023/05/04 04:19:30;;;;;;;8.93;4.33;;;;;;;12.08;57.75;101207.70;125379;1086;104231;-75
2023/05/04 04:21:59;;;;;;;9.60;4.60;;;;;;;12.11;57.88;101214.83;125330;1086;104225;-75
2023/05/04 04:24:27;;;;;;;8.77;4.70;;;;;;;12.13;57.83;101214.03;125404;1086;104331;-76
2023/05/04 04:26:56;;;;;;;13.40;4.83;;;;;;;12.17;57.88;101201.89;125241;1086;104380;-75
2023/05/04 04:29:25;;;;;;;12.93;4.40;;;;;;;12.19;57.81;101203.75;125442;1086;104204;-77
2023/05/04 04:31:53;;;;;;;10.30;4.43;;;;;;;12.21;57.87;101201.19;125372;1086;104232;-75
2023/05/04 04:34:22;;;;;;;14.67;5.17;;;;;;;12.21;57.59;101198.55;125402;1086;104337;-75
2023/05/04 04:36:51;;;;;;;12.97;4.50;;;;;;;12.27;57.77;101192.66;125390;1085;104254;-74
2023/05/04 04:39:20;;;;;;;14.07;4.73;;;;;;;12.32;57.54;101194.61;125200;1086;104412;-75
2023/05/04 04:41:48;;;;;;;8.93;4.40;;;;;;;12.40;57.44;101189.65;125366;1086;104232;-75
2023/05/04 04:44:17;;;;;;;14.63;4.40;;;;;;;12.47;57.21;101194.33;125559;1086;104376;-74
2023/05/04 04:46:56;;;;;;;14.40;4.40;;;;;;;12.58;57.51;101194.75;125445;1086;104284;-78
2023/05/04 04:49:26;;;;;;;10.43;5.00;;;;;;;12.71;57.43;101196.11;125440;1086;104206;-76
2023/05/04 04:51:55;;;;;;;12.10;4.45;;;;;;;12.84;57.52;101198.38;125641;1085;104241;-75
2023/05/04 04:54:24;;;;;;;12.60;4.40;;;;;;;12.91;57.67;101184.58;125866;1086;104155;-73
2023/05/04 04:56:52;;;;;;;11.70;4.50;;;;;;;12.97;57.41;101185.66;125530;1086;104218;-75
2023/05/04 04:59:23;;;;;;;13.30;4.83;;;;;;;12.99;57.05;101195.40;125552;1086;104255;-74
2023/05/04 05:01:52;;;;;;;8.03;4.43;;;;;;;12.97;56.75;101190.94;125620;1086;104364;-72
2023/05/04 05:04:21;;;;;;;8.20;3.93;;;;;;;12.99;56.85;101202.42;125360;1086;104344;-75
2023/05/04 05:06:50;;;;;;;10.10;4.83;;;;;;;13.02;57.05;101203.41;125738;1086;104241;-74
2023/05/04 05:09:18;;;;;;;14.93;4.50;;;;;;;13.02;57.34;101202.53;125732;1086;104238;-74
2023/05/04 05:11:47;;;;;;;8.93;4.37;;;;;;;13.06;57.46;101200.06;125536;1086;104245;-73
2023/05/04 05:14:15;;;;;;;12.10;4.70;;;;;;;13.14;56.79;101202.98;125887;1086;104276;-74
2023/05/04 05:16:44;;;;;;;10.73;4.33;;;;;;;13.22;57.07;101201.51;125839;1086;104307;-79
2023/05/04 05:19:13;;;;;;;9.83;4.20;;;;;;;13.29;57.06;101207.89;126274;1086;104202;-77
2023/05/04 05:21:41;;;;;;;11.33;5.00;;;;;;;13.29;56.41;101205.25;126399;1086;104279;-75
2023/05/04 05:24:10;;;;;;;10.03;4.50;;;;;;;13.28;56.67;101212.27;125682;1086;104318;-74
2023/05/04 05:26:39;;;;;;;16.30;5.40;;;;;;;13.28;56.81;101212.27;126082;1086;102428;-75
2023/05/04 05:29:08;;;;;;;12.87;5.30;;;;;;;13.30;56.91;101221.13;126471;1086;103693;-75
2023/05/04 05:31:38;;;;;;;13.83;5.20;;;;;;;13.33;56.69;101216.83;126511;1086;104216;-77
2023/05/04 05:34:06;;;;;;;12.90;4.90;;;;;;;13.36;57.04;101220.49;126952;1086;104232;-76
2023/05/04 05:36:35;;;;;;;12.37;4.80;;;;;;;13.37;56.58;101221.38;126731;1086;104151;-79
2023/05/04 05:39:03;;;;;;;13.17;4.87;;;;;;;13.37;56.78;101218.74;127154;1086;104290;-76
2023/05/04 05:41:33;;;;;;;12.87;5.67;;;;;;;13.42;56.71;101215.44;126943;1086;102212;-79
2023/05/04 05:44:04;;;;;;;13.67;5.00;;;;;;;13.48;57.29;101218.30;126847;1086;104190;-79
2023/05/04 05:46:35;;;;;;;12.55;5.05;;;;;;;13.59;57.07;101213.40;127274;1086;102545;-80
2023/05/04 05:49:06;;;;;;;14.05;4.80;;;;;;;13.71;57.50;101206.75;127396;1086;102313;-77
2023/05/04 05:51:35;;;;;;;12.90;4.90;;;;;;;13.81;56.81;101215.02;126957;1086;104390;-79
2023/05/04 05:54:04;;;;;;;10.77;5.17;;;;;;;13.96;57.46;101219.02;126932;1086;104370;-79
2023/05/04 05:56:33;;;;;;;11.93;5.70;;;;;;;14.10;57.19;101201.00;126761;1086;102754;-73
2023/05/04 05:59:02;;;;;;;11.20;5.30;;;;;;;14.24;57.08;101215.53;126870;1086;104209;-77
2023/05/04 06:01:30;;;;;;;13.07;5.57;;;;;;;14.33;57.10;101213.19;127396;1086;102576;-77
2023/05/04 06:03:59;;;;;;;14.17;5.17;;;;;;;14.46;57.24;101210.94;127543;1086;104158;-78
2023/05/04 06:06:30;;;;;;;12.23;5.47;;;;;;;14.59;57.13;101206.95;127451;1086;104360;-78
2023/05/04 06:09:06;;;;;;;14.73;5.90;;;;;;;14.69;56.58;101209.95;127022;1086;102173;-78
2023/05/04 06:11:35;;;;;;;14.27;5.90;;;;;;;14.79;57.49;101215.48;127084;1086;104200;-77
2023/05/04 06:14:04;;;;;;;13.23;5.87;;;;;;;14.92;56.60;101207.08;126727;1086;104229;-77
2023/05/04 06:16:38;;;;;;;15.83;5.50;;;;;;;15.05;57.43;101205.67;126965;1086;104242;-77
2023/05/04 06:19:10;;;;;;;14.73;5.80;;;;;;;15.23;56.44;101202.67;126814;1086;102304;-79
2023/05/04 06:21:43;;;;;;;14.18;5.95;;;;;;;15.41;56.86;101203.19;126733;1086;104312;-77
2023/05/04 06:24:12;;;;;;;14.30;6.03;;;;;;;15.54;56.72;101193.81;126743;1085;102456;-77
2023/05/04 06:26:41;;;;;;;14.83;6.03;;;;;;;15.71;56.33;101198.67;126522;1086;104162;-75
2023/05/04 06:29:09;;;;;;;12.27;5.27;;;;;;;15.89;56.28;101200.91;126577;1086;104249;-74
2023/05/04 06:31:38;;;;;;;11.27;5.13;;;;;;;16.02;57.00;101205.66;126523;1086;104209;-75
2023/05/04 06:34:08;;;;;;;12.50;5.37;;;;;;;16.15;56.61;101204.20;126237;1086;104156;-72
2023/05/04 06:36:37;;;;;;;15.57;5.20;;;;;;;16.25;56.72;101197.36;126351;1086;104355;-78
2023/05/04 06:39:09;;;;;;;9.77;4.90;;;;;;;16.41;55.92;101203.90;126529;1086;104264;-77
2023/05/04 06:41:37;;;;;;;12.30;5.00;;;;;;;16.55;55.89;101210.43;126322;1086;104254;-73
2023/05/04 06:44:08;;;;;;;9.53;4.13;;;;;;;16.62;55.71;101211.45;126504;1086;104232;-74
2023/05/04 06:46:37;;;;;;;13.70;4.67;;;;;;;16.74;55.89;101209.08;126434;1086;104225;-77
2023/05/04 06:49:06;;;;;;;8.17;4.30;;;;;;;16.84;55.43;101215.45;126482;1086;104165;-75
2023/05/04 06:51:38;;;;;;;16.37;4.90;;;;;;;16.90;55.30;101212.98;126610;1086;104153;-73
2023/05/04 06:54:10;;;;;;;8.70;3.90;;;;;;;16.95;55.62;101224.56;126652;1086;104228;-75
2023/05/04 06:56:38;;;;;;;9.90;4.50;;;;;;;16.97;55.25;101219.29;126587;1086;104370;-77
2023/05/04 06:59:08;;;;;;;10.90;4.03;;;;;;;16.98;54.66;101218.44;126555;1086;104236;-71
2023/05/04 07:01:37;;;;;;;9.47;3.50;;;;;;;16.98;54.66;101215.78;126600;1086;102751;-77
2023/05/04 07:04:10;;;;;;;12.63;3.80;;;;;;;16.98;54.49;101226.39;126323;1086;102090;-74
2023/05/04 07:06:39;;;;;;;11.47;4.00;;;;;;;16.98;54.26;101227.27;126459;1086;104351;-76
2023/05/04 07:09:08;;;;;;;15.80;4.07;;;;;;;16.95;54.06;101221.91;126776;1086;104204;-73
2023/05/04 07:11:38;;;;;;;8.27;4.07;;;;;;;16.92;53.83;101224.49;126769;1086;102063;-73
2023/05/04 07:14:08;;;;;;;7.27;3.60;;;;;;;16.89;53.49;101224.42;126462;1086;104199;-73
2023/05/04 07:16:51;;;;;;;9.80;3.80;;;;;;;16.87;53.70;101226.16;126877;1086;104232;-78
2023/05/04 07:19:20;;;;;;;5.87;3.40;;;;;;;16.89;53.65;101225.34;126946;1086;104155;-77
2023/05/04 07:21:48;;;;;;;6.80;3.60;;;;;;;16.94;53.60;101228.09;126655;1086;102086;-77
2023/05/04 07:24:21;;;;;;;8.53;3.70;;;;;;;17.01;53.99;101232.64;126481;1086;104340;-77
2023/05/04 07:26:49;;;;;;;7.97;3.70;;;;;;;17.07;53.65;101227.47;126773;1086;104152;-77
2023/05/04 07:29:19;;;;;;;7.10;3.30;;;;;;;17.12;53.93;101232.87;126302;1086;104279;-81
2023/05/04 07:31:54;;;;;;;10.55;3.75;;;;;;;17.18;53.56;101234.77;126550;1086;104213;-76
2023/05/04 07:34:27;;;;;;;7.70;3.63;;;;;;;17.24;53.87;101235.77;126727;1086;104399;-77
2023/05/04 07:36:56;;;;;;;8.00;3.60;;;;;;;17.29;53.31;101227.91;126824;1086;102480;-78
2023/05/04 07:39:28;;;;;;;6.73;3.87;;;;;;;17.31;53.38;101223.55;126636;1086;102766;-75
2023/05/04 07:41:57;;;;;;;7.20;3.80;;;;;;;17.40;53.41;101223.70;126629;1086;104155;-74
2023/05/04 07:44:26;;;;;;;10.67;3.97;;;;;;;17.50;52.97;101230.09;126651;1086;101967;-74
2023/05/04 07:46:56;;;;;;;7.30;3.60;;;;;;;17.58;53.09;101233.77;126879;1086;104142;-78
2023/05/04 07:49:27;;;;;;;8.00;3.53;;;;;;;17.64;52.42;101226.78;126781;1086;104263;-74
2023/05/04 07:51:56;;;;;;;6.50;3.47;;;;;;;17.71;52.32;101226.04;126475;1086;104344;-75
2023/05/04 07:54:25;;;;;;;8.23;3.37;;;;;;;17.81;52.52;101228.00;126407;1087;102542;-74
2023/05/04 07:56:54;;;;;;;7.53;3.70;;;;;;;17.88;52.41;101229.91;126750;1086;104196;-77
2023/05/04 07:59:25;;;;;;;9.83;3.97;;;;;;;17.99;52.31;101226.56;126713;1085;102442;-74
2023/05/04 08:01:56;;;;;;;9.47;3.80;;;;;;;18.08;51.96;101235.56;126600;1085;104222;-73
2023/05/04 08:04:37;;;;;;;;;;;;;;;;;;;;;
2023/05/04 08:07:05;;;;;;;14.15;4.00;;;;;;;18.43;51.51;101229.93;126809;1086;104232;-77
2023/05/04 08:09:46;;;;;;;8.53;4.00;;;;;;;18.61;51.77;101239.04;126390;1086;104162;-77
2023/05/04 08:12:18;;;;;;;9.63;3.60;;;;;;;18.76;51.46;101233.94;126647;1086;108582;-75
2023/05/04 08:14:47;;;;;;;5.90;3.57;;;;;;;18.90;50.70;101234.16;126522;1086;102404;-77
2023/05/04 08:17:19;;;;;;;8.17;3.50;;;;;;;19.07;50.63;101231.69;126697;1086;102497;-76
2023/05/04 08:19:48;;;;;;;7.23;3.40;;;;;;;19.24;50.72;101225.70;126759;1086;103678;-76
2023/05/04 08:22:21;;;;;;;7.35;3.20;;;;;;;19.34;50.42;101232.92;126431;1086;104248;-73
2023/05/04 08:24:49;;;;;;;11.57;3.80;;;;;;;19.44;50.36;101244.55;126357;1086;104234;-80
2023/05/04 08:27:18;;;;;;;8.73;3.73;;;;;;;19.52;49.73;101234.88;126543;1086;104162;-75
2023/05/04 08:29:47;;;;;;;8.87;3.77;;;;;;;19.62;50.01;101220.80;126835;1086;102329;-77
2023/05/04 08:32:16;;;;;;;10.63;3.80;;;;;;;19.72;49.33;101222.64;126452;1086;104263;-73
2023/05/04 08:34:44;;;;;;;9.00;3.73;;;;;;;19.75;49.18;101212.02;126575;1086;104229;-74
2023/05/04 08:37:15;;;;;;;7.67;3.50;;;;;;;19.87;49.91;101213.07;126289;1085;104034;-78
2023/05/04 08:39:46;;;;;;;9.17;3.47;;;;;;;19.97;48.43;101214.03;126357;1086;104159;-73
2023/05/04 08:42:25;;;;;;;6.97;3.30;;;;;;;20.09;48.38;101209.69;126336;1086;104225;-73
2023/05/04 08:44:56;;;;;;;8.10;3.30;;;;;;;20.21;47.90;101203.58;126512;1086;104226;-79
2023/05/04 08:47:25;;;;;;;9.63;3.20;;;;;;;20.19;47.17;101199.98;126504;1086;104245;-73
2023/05/04 08:49:56;;;;;;;5.63;3.63;;;;;;;20.28;47.04;101210.71;126272;1086;104232;-77
2023/05/04 08:52:25;;;;;;;8.97;3.30;;;;;;;20.35;47.13;101200.09;126160;1086;104220;-77
2023/05/04 08:54:56;;;;;;;9.70;3.37;;;;;;;20.41;47.40;101205.47;126574;1085;104215;-78
2023/05/04 08:57:26;;;;;;;6.30;3.13;;;;;;;20.42;47.38;101201.93;126258;1086;104191;-76
2023/05/04 08:59:56;;;;;;;7.33;3.10;;;;;;;20.44;46.07;101201.06;126209;1085;102401;-77
2023/05/04 09:02:26;;;;;;;7.33;3.20;;;;;;;20.49;45.56;101203.77;126604;1086;102408;-75
2023/05/04 09:04:54;;;;;;;5.80;2.83;;;;;;;20.55;46.00;101192.22;126620;1086;102574;-79
2023/05/04 09:07:23;;;;;;;5.70;2.83;;;;;;;20.56;45.81;101188.69;126471;1086;104294;-74
2023/05/04 09:09:53;;;;;;;7.23;3.10;;;;;;;20.54;45.73;101186.01;126614;1086;104223;-76
2023/05/04 09:12:25;;;;;;;5.47;3.10;;;;;;;20.57;45.41;101190.44;126458;1086;104235;-75
2023/05/04 09:14:54;;;;;;;6.90;2.90;;;;;;;20.56;45.23;101184.23;126519;1086;104194;-76
2023/05/04 09:17:24;;;;;;;8.03;3.50;;;;;;;20.56;44.68;101183.35;126837;1086;102164;-78
2023/05/04 09:20:00;;;;;;;4.45;2.70;;;;;;;20.54;44.64;101186.01;126636;1086;104168;-76
2023/05/04 09:22:30;;;;;;;6.90;2.90;;;;;;;20.55;45.05;101187.77;126551;1086;104225;-75
2023/05/04 09:25:10;;;;;;;4.57;3.30;;;;;;;20.58;44.31;101184.23;126888;1086;104235;-75
2023/05/04 09:27:41;;;;;;;8.00;3.10;;;;;;;20.58;44.38;101186.91;126571;1086;104213;-76
2023/05/04 09:30:13;;;;;;;7.53;3.27;;;;;;;20.62;44.31;101186.05;126388;1086;102233;-74
2023/05/04 09:32:50;;;;;;;12.93;3.20;;;;;;;20.63;44.31;101174.48;126620;1086;104311;-77
2023/05/04 09:35:32;;;;;;;10.67;3.20;;;;;;;20.67;44.01;101180.77;126918;1086;104213;-78
2023/05/04 09:38:06;;;;;;;4.67;3.00;;;;;;;20.64;43.89;101177.19;126694;1086;104194;-82
2023/05/04 09:40:39;;;;;;;5.37;3.00;;;;;;;20.61;43.62;101176.26;126753;1086;104626;-82
2023/05/04 09:43:09;;;;;;;4.67;2.87;;;;;;;20.59;43.68;101172.70;126744;1086;104155;-79
2023/05/04 09:45:43;;;;;;;5.37;2.80;;;;;;;20.59;43.40;101178.92;126978;1086;104277;-79
2023/05/04 09:48:23;;;;;;;8.10;3.00;;;;;;;20.58;44.00;101178.91;126796;1086;104346;-81
2023/05/04 09:50:58;;;;;;;5.53;2.87;;;;;;;20.56;42.62;101178.02;126435;1086;104278;-77
2023/05/04 09:53:31;;;;;;;7.07;3.17;;;;;;;20.61;43.10;101184.26;126812;1086;102323;-83
2023/05/04 09:56:10;;;;;;;6.05;2.90;;;;;;;20.70;42.65;101183.46;126908;1086;102447;-83
2023/05/04 09:58:39;;;;;;;7.97;3.10;;;;;;;20.75;43.83;101173.70;126932;1086;104229;-83
2023/05/04 10:01:09;;;;;;;7.17;3.00;;;;;;;20.70;43.00;101165.67;127029;1086;102762;-80
2023/05/04 10:03:42;;;;;;;4.67;2.87;;;;;;;20.75;42.79;101171.91;126873;1086;102091;-78
2023/05/04 10:06:13;;;;;;;5.83;3.10;;;;;;;20.79;42.92;101167.50;126699;1086;104340;-80
2023/05/04 10:08:51;;;;;;;10.00;3.40;;;;;;;20.83;42.82;101171.94;126813;1086;104184;-80
2023/05/04 10:11:24;;;;;;;5.60;3.00;;;;;;;20.88;42.69;101171.96;127074;1086;103004;-78
2023/05/04 10:13:55;;;;;;;8.53;3.13;;;;;;;20.97;42.91;101174.66;126880;1086;104231;-78
2023/05/04 10:16:36;;;;;;;8.43;3.03;;;;;;;21.06;43.52;101169.36;126749;1086;104229;-75
2023/05/04 10:19:38;;;;;;;6.20;3.40;;;;;;;21.12;43.03;101174.72;126577;1086;104181;-76
2023/05/04 10:22:23;;;;;;;6.20;3.00;;;;;;;21.15;42.39;101166.72;126924;1085;104344;-77
2023/05/04 10:25:34;;;;;;;7.93;3.43;;;;;;;21.08;42.84;101167.58;126561;1086;102322;-81
2023/05/04 10:28:12;;;;;;;8.60;3.40;;;;;;;21.07;42.92;101160.48;126809;1086;104159;-77
2023/05/04 10:30:44;;;;;;;8.10;3.20;;;;;;;21.06;42.73;101160.48;126652;1086;102571;-75
2023/05/04 10:33:13;;;;;;;8.53;3.23;;;;;;;21.10;42.31;101163.16;126496;1086;102467;-80
2023/05/04 10:35:55;;;;;;;8.77;3.20;;;;;;;21.16;42.73;101160.51;127049;1086;104225;-78
2023/05/04 10:38:34;;;;;;;;;;;;;;;21.22;42.69;101150.72;126871;1086;102205;-77
2023/05/04 10:41:14;;;;;;;5.80;3.20;;;;;;;21.28;42.03;101153.41;126810;1085;104153;-77
2023/05/04 10:43:47;;;;;;;5.73;3.13;;;;;;;21.29;41.54;101150.74;126631;1086;104221;-78
2023/05/04 10:46:20;;;;;;;9.20;3.90;;;;;;;21.26;42.18;101142.73;126615;1086;104206;-78
2023/05/04 10:48:51;;;;;;;10.27;3.83;;;;;;;21.23;42.24;101144.52;126425;1086;104311;-78
2023/05/04 10:51:23;;;;;;;9.97;3.10;;;;;;;21.25;41.64;101138.27;126767;1086;104151;-75
2023/05/04 10:53:51;;;;;;;6.30;3.20;;;;;;;21.29;41.62;101141.86;126711;1089;104139;-75
2023/05/04 10:56:27;;;;;;;6.97;3.37;;;;;;;21.30;41.85;101139.19;127344;1086;102828;-75
2023/05/04 10:59:09;;;;;;;10.57;3.30;;;;;;;21.28;41.52;101138.27;126851;1086;104181;-81
2023/05/04 11:01:45;;;;;;;12.63;3.70;;;;;;;21.27;41.55;101138.27;126925;1086;104359;-79
2023/05/04 11:04:22;;;;;;;5.80;3.30;;;;;;;21.25;41.30;101134.72;126831;1086;104149;-74
2023/05/04 11:06:59;;;;;;;6.35;3.15;;;;;;;21.27;41.90;101124.92;126905;1086;104225;-75
2023/05/04 11:09:35;;;;;;;4.63;3.00;;;;;;;21.24;41.52;101130.26;126973;1086;104284;-77
2023/05/04 11:12:05;;;;;;;12.40;3.27;;;;;;;21.23;42.03;101129.38;126789;1085;103798;-74
2023/05/04 11:14:40;;;;;;;9.23;3.30;;;;;;;21.29;41.74;101121.38;126575;1086;104321;-79
2023/05/04 11:17:09;;;;;;;6.73;3.20;;;;;;;21.24;41.96;101115.16;126654;1086;102548;-75
2023/05/04 11:19:49;;;;;;;6.30;3.40;;;;;;;21.27;41.68;101116.92;126473;1086;104260;-75
2023/05/04 11:22:18;;;;;;;5.67;3.33;;;;;;;21.30;42.00;101117.84;126842;1086;104300;-77